createdAt,value
2016-08-03T00:00:23.399Z,95.46
2016-08-03T00:01:23.981Z,95.36
2016-08-03T00:02:24.067Z,95.56
2016-08-03T00:03:23.409Z,95.79
2016-08-03T00:04:24.674Z,95.26
2016-08-03T00:05:24.230Z,95.6
2016-08-03T00:06:24.124Z,95.56
2016-08-03T00:07:24.266Z,95.46
2016-08-03T00:08:23.628Z,95.26
2016-08-03T00:09:24.675Z,95.36
2016-08-03T00:10:23.332Z,95.17
2016-08-03T00:11:23.719Z,95.56
2016-08-03T00:12:24.587Z,95.46
2016-08-03T00:13:23.935Z,95.36
2016-08-03T00:14:24.123Z,95.56
2016-08-03T00:15:24.332Z,95.36
2016-08-03T00:16:23.877Z,95.56
2016-08-03T00:17:24.085Z,95.75
2016-08-03T00:18:24.897Z,95.65
2016-08-03T00:19:24.874Z,95.56
2016-08-03T00:20:24.280Z,95.26
2016-08-03T00:21:24.477Z,95.65
2016-08-03T00:22:25.619Z,95.75
2016-08-03T00:23:25.102Z,95.46
2016-08-03T00:24:24.914Z,95.56
2016-08-03T00:25:24.326Z,95.94
2016-08-03T00:26:25.215Z,96.08
2016-08-03T00:27:25.025Z,95.75
2016-08-03T00:28:25.080Z,95.36
2016-08-03T00:29:25.948Z,95.46
2016-08-03T00:30:24.680Z,95.65
2016-08-03T00:31:25.080Z,95.46
2016-08-03T00:32:24.462Z,96.32
2016-08-03T00:33:24.089Z,95.46
2016-08-03T00:34:25.019Z,95.75
2016-08-03T00:35:25.101Z,95.56
2016-08-03T00:36:25.221Z,95.75
2016-08-03T00:37:25.015Z,95.46
2016-08-03T00:38:24.539Z,95.75
2016-08-03T00:39:24.379Z,95.75
2016-08-03T00:40:24.560Z,95.56
2016-08-03T00:41:25.339Z,95.46
2016-08-03T00:42:24.471Z,95.75
2016-08-03T00:43:25.021Z,95.7
2016-08-03T00:44:25.028Z,95.75
2016-08-03T00:45:25.110Z,95.56
2016-08-03T00:46:24.620Z,95.46
2016-08-03T00:47:25.720Z,95.51
2016-08-03T00:48:25.109Z,95.56
2016-08-03T00:49:24.724Z,95.56
2016-08-03T00:50:26.087Z,95.51
2016-08-03T00:51:24.648Z,95.46
2016-08-03T00:52:25.563Z,95.26
2016-08-03T00:53:25.499Z,95.65
2016-08-03T00:54:24.920Z,96.32
2016-08-03T00:55:24.753Z,95.56
2016-08-03T00:56:24.612Z,96.13
2016-08-03T00:57:25.138Z,96.13
2016-08-03T00:58:25.820Z,96.7
2016-08-03T00:59:25.528Z,96.51
2016-08-03T01:00:25.517Z,96.89
2016-08-03T01:01:24.989Z,96.89
2016-08-03T01:02:24.820Z,96.89
2016-08-03T01:03:25.211Z,96.61
2016-08-03T01:04:26.189Z,96.99
2016-08-03T01:05:25.249Z,97.28
2016-08-03T01:06:25.993Z,96.8
2016-08-03T01:07:25.230Z,97.09
2016-08-03T01:08:25.197Z,96.51
2016-08-03T01:09:25.401Z,96.32
2016-08-03T01:10:25.480Z,97.09
2016-08-03T01:11:25.262Z,96.42
2016-08-03T01:12:25.746Z,96.89
2016-08-03T01:13:25.847Z,97.09
2016-08-03T01:14:25.274Z,97.47
2016-08-03T01:15:25.085Z,96.61
2016-08-03T01:16:25.925Z,96.99
2016-08-03T01:17:25.195Z,96.7
2016-08-03T01:18:25.639Z,96.56
2016-08-03T01:19:25.587Z,96.61
2016-08-03T01:20:27.067Z,96.8
2016-08-03T01:21:26.688Z,96.51
2016-08-03T01:22:27.336Z,96.8
2016-08-03T01:23:25.447Z,97.09
2016-08-03T01:24:25.445Z,96.7
2016-08-03T01:25:25.409Z,97.18
2016-08-03T01:26:26.641Z,97.09
2016-08-03T01:27:26.392Z,96.99
2016-08-03T01:28:25.323Z,96.89
2016-08-03T01:29:25.468Z,97.47
2016-08-03T01:30:27.585Z,96.8
2016-08-03T01:31:25.803Z,96.99
2016-08-03T01:32:26.712Z,97.18
2016-08-03T01:33:26.567Z,96.89
2016-08-03T01:34:26.674Z,98.14
2016-08-03T01:35:25.753Z,96.89
2016-08-03T01:36:26.605Z,97.18
2016-08-03T01:37:27.133Z,98.05
2016-08-03T01:38:26.069Z,97.76
2016-08-03T01:39:26.668Z,97.56
2016-08-03T01:40:25.720Z,96.89
2016-08-03T01:41:26.233Z,97.56
2016-08-03T01:42:26.661Z,97.76
2016-08-03T01:43:26.378Z,97.09
2016-08-03T01:44:26.765Z,97.09
2016-08-03T01:45:25.827Z,97.95
2016-08-03T01:46:26.658Z,97.76
2016-08-03T01:47:26.700Z,97.66
2016-08-03T01:48:26.351Z,97.85
2016-08-03T01:49:27.121Z,97.95
2016-08-03T01:50:26.631Z,97.66
2016-08-03T01:51:26.340Z,97.85
2016-08-03T01:52:26.930Z,96.89
2016-08-03T01:53:27.075Z,97.95
2016-08-03T01:54:27.507Z,97.09
2016-08-03T01:55:27.198Z,97.09
2016-08-03T01:56:26.862Z,97.09
2016-08-03T01:57:27.572Z,97.38
2016-08-03T01:58:26.759Z,96.7
2016-08-03T01:59:26.469Z,97.66
2016-08-03T02:00:26.971Z,97.95
2016-08-03T02:01:27.180Z,97.66
2016-08-03T02:02:26.856Z,97.85
2016-08-03T02:03:26.575Z,97.66
2016-08-03T02:04:27.185Z,97.85
2016-08-03T02:05:26.840Z,97.09
2016-08-03T02:06:27.218Z,97.47
2016-08-03T02:07:27.043Z,97.09
2016-08-03T02:08:26.388Z,97.56
2016-08-03T02:09:26.606Z,97.18
2016-08-03T02:10:27.731Z,97.18
2016-08-03T02:11:26.651Z,97.09
2016-08-03T02:12:26.990Z,96.99
2016-08-03T02:13:26.620Z,96.99
2016-08-03T02:14:27.333Z,97.95
2016-08-03T02:15:27.352Z,96.89
2016-08-03T02:16:26.819Z,96.8
2016-08-03T02:17:27.455Z,97.85
2016-08-03T02:18:28.092Z,96.7
2016-08-03T02:19:27.488Z,97.38
2016-08-03T02:20:28.989Z,97.76
2016-08-03T02:21:27.738Z,97.09
2016-08-03T02:22:28.050Z,97.85
2016-08-03T02:23:27.364Z,97.76
2016-08-03T02:24:27.975Z,97.66
2016-08-03T02:25:27.429Z,97.09
2016-08-03T02:26:28.517Z,97.95
2016-08-03T02:27:26.987Z,97.56
2016-08-03T02:28:27.609Z,97.18
2016-08-03T02:29:26.938Z,97.66
2016-08-03T02:30:27.571Z,97.56
2016-08-03T02:31:27.666Z,97.09
2016-08-03T02:32:27.796Z,97.95
2016-08-03T02:33:27.809Z,97.85
2016-08-03T02:34:27.589Z,97.56
2016-08-03T02:35:27.489Z,97.76
2016-08-03T02:36:28.269Z,97.47
2016-08-03T02:37:28.904Z,96.8
2016-08-03T02:38:27.589Z,97.56
2016-08-03T02:39:27.755Z,96.99
2016-08-03T02:40:28.417Z,97.76
2016-08-03T02:41:27.676Z,97.76
2016-08-03T02:42:27.659Z,97.85
2016-08-03T02:43:28.863Z,97.85
2016-08-03T02:44:28.004Z,97.66
2016-08-03T02:45:27.619Z,97.95
2016-08-03T02:46:27.320Z,97.95
2016-08-03T02:47:27.761Z,97.56
2016-08-03T02:48:27.690Z,97.66
2016-08-03T02:49:27.966Z,97.38
2016-08-03T02:50:28.347Z,97.95
2016-08-03T02:51:27.702Z,97.95
2016-08-03T02:52:29.356Z,98.33
2016-08-03T02:53:28.462Z,98.24
2016-08-03T02:54:27.839Z,97.56
2016-08-03T02:55:28.126Z,97.76
2016-08-03T02:56:27.855Z,98.24
2016-08-03T02:57:27.664Z,97.85
2016-08-03T02:58:27.810Z,98.05
2016-08-03T02:59:29.451Z,97.95
2016-08-03T03:00:29.420Z,97.18
2016-08-03T03:01:27.797Z,97.85
2016-08-03T03:02:27.857Z,97.95
2016-08-03T03:03:28.915Z,97.95
2016-08-03T03:04:28.398Z,97.85
2016-08-03T03:05:28.057Z,97.56
2016-08-03T03:06:27.991Z,97.76
2016-08-03T03:07:28.295Z,97.66
2016-08-03T03:08:28.874Z,97.38
2016-08-03T03:09:28.052Z,97.38
2016-08-03T03:10:28.264Z,97.95
2016-08-03T03:11:28.095Z,97.66
2016-08-03T03:12:29.138Z,97.66
2016-08-03T03:13:28.944Z,96.99
2016-08-03T03:14:29.296Z,97.38
2016-08-03T03:15:29.434Z,97.38
2016-08-03T03:16:28.594Z,96.89
2016-08-03T03:17:28.437Z,97.56
2016-08-03T03:18:28.829Z,96.99
2016-08-03T03:19:28.683Z,97.09
2016-08-03T03:20:28.288Z,97.47
2016-08-03T03:21:30.229Z,97.09
2016-08-03T03:22:28.536Z,96.8
2016-08-03T03:23:29.737Z,97.56
2016-08-03T03:24:29.550Z,97.28
2016-08-03T03:25:29.528Z,97.18
2016-08-03T03:26:30.173Z,97.09
2016-08-03T03:27:28.572Z,96.7
2016-08-03T03:28:28.742Z,96.99
2016-08-03T03:29:29.659Z,97.56
2016-08-03T03:30:29.947Z,97.38
2016-08-03T03:31:29.867Z,97.66
2016-08-03T03:32:29.076Z,97.85
2016-08-03T03:33:29.267Z,97.18
2016-08-03T03:34:28.925Z,96.99
2016-08-03T03:35:29.331Z,97.18
2016-08-03T03:36:28.878Z,96.8
2016-08-03T03:37:28.752Z,97.09
2016-08-03T03:38:29.102Z,96.42
2016-08-03T03:39:29.045Z,96.13
2016-08-03T03:40:29.286Z,97.28
2016-08-03T03:41:29.974Z,97.09
2016-08-03T03:42:29.739Z,98.05
2016-08-03T03:43:29.024Z,97.18
2016-08-03T03:45:29.179Z,96.8
2016-08-03T03:46:30.000Z,97.56
2016-08-03T03:47:29.551Z,97.09
2016-08-03T03:48:29.333Z,96.7
2016-08-03T03:49:29.452Z,97.18
2016-08-03T03:50:29.896Z,97.95
2016-08-03T03:51:29.773Z,97.18
2016-08-03T03:52:29.086Z,97.38
2016-08-03T03:53:30.206Z,96.8
2016-08-03T03:54:29.675Z,96.89
2016-08-03T03:55:29.322Z,96.51
2016-08-03T03:56:29.664Z,96.99
2016-08-03T03:57:29.974Z,96.51
2016-08-03T03:58:30.184Z,96.32
2016-08-03T04:00:29.940Z,96.7
2016-08-03T04:01:31.394Z,96.61
2016-08-03T04:02:29.424Z,97.09
2016-08-03T04:03:29.510Z,97.09
2016-08-03T04:04:29.658Z,97.09
2016-08-03T04:05:29.361Z,97.85
2016-08-03T04:06:29.488Z,96.89
2016-08-03T04:07:30.686Z,96.94
2016-08-03T04:08:30.486Z,96.42
2016-08-03T04:09:30.306Z,96.99
2016-08-03T04:10:29.621Z,96.47
2016-08-03T04:11:30.808Z,96.47
2016-08-03T04:12:29.556Z,96.27
2016-08-03T04:13:30.082Z,95.6
2016-08-03T04:15:29.994Z,95.7
2016-08-03T04:16:29.718Z,96.18
2016-08-03T04:17:29.721Z,96.37
2016-08-03T04:18:30.722Z,96.66
2016-08-03T04:19:30.268Z,96.18
2016-08-03T04:20:29.622Z,96.75
2016-08-03T04:21:30.208Z,96.18
2016-08-03T04:22:31.185Z,95.7
2016-08-03T04:23:32.073Z,96.56
2016-08-03T04:24:30.449Z,96.37
2016-08-03T04:25:31.197Z,96.37
2016-08-03T04:26:31.507Z,96.37
2016-08-03T04:27:30.017Z,96.27
2016-08-03T04:28:30.749Z,95.79
2016-08-03T04:30:30.093Z,96.37
2016-08-03T04:31:30.356Z,95.7
2016-08-03T04:32:30.325Z,95.89
2016-08-03T04:33:30.551Z,95.7
2016-08-03T04:34:31.641Z,95.79
2016-08-03T04:35:30.475Z,95.79
2016-08-03T04:36:31.487Z,95.41
2016-08-03T04:37:30.320Z,95.89
2016-08-03T04:38:30.570Z,95.7
2016-08-03T04:39:30.216Z,95.79
2016-08-03T04:40:30.456Z,95.7
2016-08-03T04:41:30.654Z,95.6
2016-08-03T04:42:30.717Z,95.21
2016-08-03T04:43:30.330Z,95.41
2016-08-03T04:44:31.644Z,95.6
2016-08-03T04:45:30.959Z,95.79
2016-08-03T04:46:30.521Z,96.37
2016-08-03T04:47:31.953Z,95.79
2016-08-03T04:48:31.682Z,95.51
2016-08-03T04:49:30.658Z,95.6
2016-08-03T04:50:31.645Z,95.41
2016-08-03T04:51:30.800Z,95.79
2016-08-03T04:52:31.087Z,95.79
2016-08-03T04:53:31.864Z,95.41
2016-08-03T04:54:30.898Z,95.21
2016-08-03T04:55:31.313Z,95.6
2016-08-03T04:56:31.765Z,95.7
2016-08-03T04:57:30.757Z,94.93
2016-08-03T04:58:31.394Z,95.6
2016-08-03T04:59:31.650Z,95.6
2016-08-03T05:00:31.395Z,95.6
2016-08-03T05:01:32.018Z,95.6
2016-08-03T05:02:30.810Z,95.6
2016-08-03T05:03:31.192Z,95.7
2016-08-03T05:04:32.263Z,96.47
2016-08-03T05:05:33.338Z,95.31
2016-08-03T05:06:31.927Z,96.66
2016-08-03T05:07:31.769Z,95.6
2016-08-03T05:08:31.726Z,95.79
2016-08-03T05:09:32.304Z,95.79
2016-08-03T05:10:31.557Z,95.79
2016-08-03T05:11:32.360Z,95.31
2016-08-03T05:12:32.023Z,96.27
2016-08-03T05:13:31.633Z,95.51
2016-08-03T05:14:31.941Z,95.89
2016-08-03T05:15:31.253Z,95.21
2016-08-03T05:16:31.486Z,95.89
2016-08-03T05:17:31.697Z,95.41
2016-08-03T05:18:33.298Z,95.41
2016-08-03T05:19:32.726Z,95.41
2016-08-03T05:20:32.099Z,95.51
2016-08-03T05:21:32.001Z,95.79
2016-08-03T05:22:32.965Z,95.46
2016-08-03T05:23:32.612Z,95.6
2016-08-03T05:24:32.672Z,95.79
2016-08-03T05:25:32.822Z,95.79
2016-08-03T05:26:32.992Z,96.37
2016-08-03T05:27:32.806Z,95.75
2016-08-03T05:28:32.789Z,96.37
2016-08-03T05:29:31.976Z,96.37
2016-08-03T05:30:31.503Z,96.56
2016-08-03T05:31:31.756Z,96.66
2016-08-03T05:32:32.779Z,96.66
2016-08-03T05:33:31.521Z,96.47
2016-08-03T05:34:31.526Z,96.32
2016-08-03T05:35:32.896Z,96.22
2016-08-03T05:36:32.815Z,96.56
2016-08-03T05:37:32.013Z,95.7
2016-08-03T05:38:32.275Z,96.27
2016-08-03T05:39:31.762Z,96.56
2016-08-03T05:40:31.733Z,96.51
2016-08-03T05:41:32.491Z,97.23
2016-08-03T05:42:32.346Z,96.94
2016-08-03T05:43:31.858Z,96.61
2016-08-03T05:44:32.838Z,96.47
2016-08-03T05:45:31.862Z,96.37
2016-08-03T05:46:32.824Z,96.89
2016-08-03T05:47:31.725Z,96.56
2016-08-03T05:48:31.794Z,95.7
2016-08-03T05:49:32.895Z,95.94
2016-08-03T05:50:33.568Z,95.55
2016-08-03T05:51:31.940Z,95.65
2016-08-03T05:52:32.321Z,95.75
2016-08-03T05:53:32.536Z,95.84
2016-08-03T05:54:32.364Z,96.56
2016-08-03T05:55:32.524Z,95.55
2016-08-03T05:56:32.814Z,95.75
2016-08-03T05:57:33.095Z,95.55
2016-08-03T05:58:33.084Z,96.03
2016-08-03T05:59:32.435Z,95.46
2016-08-03T06:00:33.209Z,95.36
2016-08-03T06:01:32.680Z,95.65
2016-08-03T06:02:32.523Z,95.55
2016-08-03T06:03:31.999Z,95.36
2016-08-03T06:04:32.653Z,95.75
2016-08-03T06:05:32.681Z,95.36
2016-08-03T06:06:32.521Z,95.65
2016-08-03T06:07:32.535Z,95.36
2016-08-03T06:08:32.478Z,95.65
2016-08-03T06:09:32.480Z,95.94
2016-08-03T06:10:32.380Z,95.36
2016-08-03T06:11:32.370Z,95.26
2016-08-03T06:12:33.108Z,95.84
2016-08-03T06:13:32.934Z,95.84
2016-08-03T06:14:47.356Z,95.65
2016-08-03T06:15:47.295Z,95.75
2016-08-03T06:16:47.441Z,95.65
2016-08-03T06:17:47.288Z,96.03
2016-08-03T06:18:47.687Z,95.46
2016-08-03T06:19:47.294Z,95.26
2016-08-03T06:20:47.350Z,95.55
2016-08-03T06:21:47.584Z,95.46
2016-08-03T06:22:47.601Z,95.55
2016-08-03T06:23:47.513Z,95.36
2016-08-03T06:24:47.430Z,95.36
2016-08-03T06:25:47.840Z,95.46
2016-08-03T06:26:48.235Z,96.61
2016-08-03T06:27:47.493Z,96.42
2016-08-03T06:28:48.007Z,96.61
2016-08-03T06:29:47.561Z,97.04
2016-08-03T06:30:47.913Z,95.7
2016-08-03T06:31:47.808Z,95.79
2016-08-03T06:32:47.977Z,95.75
2016-08-03T06:33:47.822Z,95.6
2016-08-03T06:34:47.877Z,95.5
2016-08-03T06:35:48.098Z,95.79
2016-08-03T06:36:34.091Z,95.7
2016-08-03T06:37:33.656Z,96.27
2016-08-03T06:38:33.248Z,96.47
2016-08-03T06:39:33.466Z,95.89
2016-08-03T06:40:33.696Z,96.66
2016-08-03T06:41:33.411Z,96.18
2016-08-03T06:42:34.270Z,96.99
2016-08-03T06:43:33.782Z,95.89
2016-08-03T06:44:34.226Z,96.66
2016-08-03T06:45:33.417Z,95.98
2016-08-03T06:46:34.078Z,95.5
2016-08-03T06:47:34.388Z,95.41
2016-08-03T06:48:33.742Z,95.6
2016-08-03T06:49:34.251Z,95.65
2016-08-03T06:50:33.481Z,96.47
2016-08-03T06:51:33.791Z,94.98
2016-08-03T06:52:33.663Z,94.78
2016-08-03T06:53:33.556Z,95.26
2016-08-03T06:54:34.742Z,94.78
2016-08-03T06:55:33.886Z,94.59
2016-08-03T06:56:34.127Z,95.07
2016-08-03T06:57:35.621Z,94.21
2016-08-03T06:58:34.052Z,94.11
2016-08-03T06:59:33.699Z,93.44
2016-08-03T07:00:34.609Z,93.82
2016-08-03T07:01:34.014Z,93.54
2016-08-03T07:02:35.219Z,93.54
2016-08-03T07:03:34.063Z,93.44
2016-08-03T07:04:34.092Z,93.68
2016-08-03T07:05:33.958Z,93.87
2016-08-03T07:06:34.265Z,93.77
2016-08-03T07:07:34.734Z,94.06
2016-08-03T07:08:34.924Z,93.77
2016-08-03T07:09:34.978Z,93.39
2016-08-03T07:10:34.001Z,93.77
2016-08-03T07:11:34.054Z,93.73
2016-08-03T07:12:34.219Z,93.68
2016-08-03T07:13:34.935Z,93.58
2016-08-03T07:14:34.918Z,93.92
2016-08-03T07:15:34.618Z,93.77
2016-08-03T07:16:34.889Z,93.49
2016-08-03T07:17:35.893Z,93.1
2016-08-03T07:18:34.728Z,93.49
2016-08-03T07:19:34.342Z,93.49
2016-08-03T07:20:34.696Z,92.72
2016-08-03T07:21:35.466Z,92.24
2016-08-03T07:22:34.809Z,92.86
2016-08-03T07:23:34.810Z,92.24
2016-08-03T07:24:34.790Z,92.62
2016-08-03T07:25:35.908Z,92.05
2016-08-03T07:26:35.409Z,92.81
2016-08-03T07:27:35.601Z,92.38
2016-08-03T07:28:34.547Z,91.8
2016-08-03T07:29:35.651Z,91.71
2016-08-03T07:30:34.801Z,91.71
2016-08-03T07:31:34.343Z,91.8
2016-08-03T07:32:34.744Z,91.61
2016-08-03T07:33:34.696Z,91.99
2016-08-03T07:34:34.700Z,92.09
2016-08-03T07:35:34.827Z,91.66
2016-08-03T07:36:34.430Z,91.8
2016-08-03T07:37:35.082Z,91.32
2016-08-03T07:38:35.363Z,90.55
2016-08-03T07:39:35.176Z,90.69
2016-08-03T07:40:34.858Z,90.45
2016-08-03T07:41:35.216Z,91.13
2016-08-03T07:42:36.151Z,91.52
2016-08-03T07:43:34.802Z,90.26
2016-08-03T07:44:35.357Z,90.55
2016-08-03T07:45:35.338Z,90.84
2016-08-03T07:46:36.153Z,91.22
2016-08-03T07:47:36.335Z,91.71
2016-08-03T07:48:35.240Z,91.13
2016-08-03T07:49:36.167Z,91.42
2016-08-03T07:50:35.450Z,91.03
2016-08-03T07:51:35.660Z,91.22
2016-08-03T07:52:35.881Z,92.19
2016-08-03T07:53:36.010Z,91.42
2016-08-03T07:54:35.008Z,92.19
2016-08-03T07:55:35.437Z,92.09
2016-08-03T07:56:36.502Z,90.75
2016-08-03T07:57:36.440Z,91.13
2016-08-03T07:58:36.033Z,90.84
2016-08-03T07:59:36.235Z,90.55
2016-08-03T08:01:36.683Z,90.55
2016-08-03T08:02:36.314Z,90.5
2016-08-03T08:03:35.755Z,90.69
2016-08-03T08:04:36.690Z,90.5
2016-08-03T08:05:36.377Z,90.07
2016-08-03T08:06:35.917Z,89.98
2016-08-03T08:07:36.190Z,90.26
2016-08-03T08:08:36.514Z,90.31
2016-08-03T08:09:36.036Z,90.31
2016-08-03T08:10:35.895Z,90.5
2016-08-03T08:11:36.839Z,90.5
2016-08-03T08:12:35.949Z,89.73
2016-08-03T08:13:36.167Z,89.92
2016-08-03T08:14:36.536Z,90.5
2016-08-03T08:16:36.111Z,89.35
2016-08-03T08:17:36.444Z,88.57
2016-08-03T08:18:36.290Z,88.39
2016-08-03T08:19:36.479Z,89.2
2016-08-03T08:20:37.015Z,89.64
2016-08-03T08:21:36.660Z,89.83
2016-08-03T08:22:37.468Z,89.35
2016-08-03T08:23:36.395Z,88.87
2016-08-03T08:24:37.857Z,89.35
2016-08-03T08:25:51.228Z,89.35
2016-08-03T08:26:51.180Z,89.83
2016-08-03T08:27:51.185Z,90.21
2016-08-03T08:28:50.933Z,89.88
2016-08-03T08:29:36.906Z,89.83
2016-08-03T08:31:37.107Z,88.53
2016-08-03T08:32:36.514Z,88.29
2016-08-03T08:33:36.939Z,88.19
2016-08-03T08:34:36.911Z,88.48
2016-08-03T08:35:37.168Z,88.48
2016-08-03T08:36:38.144Z,89.35
2016-08-03T08:37:48.022Z,88.48
2016-08-03T08:38:47.758Z,89.35
2016-08-03T08:39:52.009Z,89.54
2016-08-03T08:40:51.414Z,89.83
2016-08-03T08:41:49.904Z,89.83
2016-08-03T08:42:44.524Z,89.83
2016-08-03T08:43:44.013Z,89.06
2016-08-03T08:44:51.551Z,89.5
2016-08-03T08:46:47.779Z,89.92
2016-08-03T08:47:44.805Z,89.64
2016-08-03T08:48:47.655Z,89.83
2016-08-03T08:49:48.657Z,89.54
2016-08-03T08:50:47.944Z,89.54
2016-08-03T08:51:50.173Z,89.64
2016-08-03T08:52:48.597Z,89.83
2016-08-03T08:53:47.810Z,89.06
2016-08-03T08:54:51.629Z,89.83
2016-08-03T08:55:51.821Z,89.44
2016-08-03T08:56:49.633Z,89.73
2016-08-03T08:57:51.881Z,89.54
2016-08-03T08:58:47.863Z,89.25
2016-08-03T08:59:48.976Z,89.15
2016-08-03T09:01:50.213Z,89.1
2016-08-03T09:02:47.971Z,89.39
2016-08-03T09:03:48.156Z,89.1
2016-08-03T09:04:48.326Z,89.2
2016-08-03T09:05:49.026Z,89.1
2016-08-03T09:06:37.379Z,88.77
2016-08-03T09:08:45.338Z,88.43
2016-08-03T09:09:47.828Z,88.24
2016-08-03T09:10:44.402Z,88.24
2016-08-03T09:11:48.302Z,88.91
2016-08-03T09:12:37.790Z,88
2016-08-03T09:13:52.955Z,88.24
2016-08-03T09:14:52.320Z,88.04
2016-08-03T09:15:52.330Z,88.14
2016-08-03T09:16:52.421Z,88.33
2016-08-03T09:17:38.221Z,87.18
2016-08-03T09:18:38.240Z,87.51
2016-08-03T09:19:38.098Z,87.46
2016-08-03T09:20:39.619Z,87.12
2016-08-03T09:21:37.956Z,87.22
2016-08-03T09:22:38.002Z,87.12
2016-08-03T09:23:38.670Z,87.08
2016-08-03T09:24:39.061Z,86.07
2016-08-03T09:25:38.806Z,85.53
2016-08-03T09:26:39.203Z,85.43
2016-08-03T09:27:38.943Z,86.49
2016-08-03T09:28:38.017Z,85.77
2016-08-03T09:29:38.407Z,85.24
2016-08-03T09:30:40.314Z,84.38
2016-08-03T09:31:38.628Z,84.03
2016-08-03T09:32:39.391Z,83.64
2016-08-03T09:33:39.282Z,83.74
2016-08-03T09:34:39.846Z,84.47
2016-08-03T09:35:39.940Z,84.38
2016-08-03T09:36:41.528Z,83.26
2016-08-03T09:37:38.498Z,82.78
2016-08-03T09:38:38.985Z,81.37
2016-08-03T09:39:38.977Z,82.67
2016-08-03T09:40:39.379Z,81.47
2016-08-03T09:41:39.199Z,82.24
2016-08-03T09:42:38.624Z,80.6
2016-08-03T09:43:39.126Z,80.26
2016-08-03T09:44:40.047Z,80.26
2016-08-03T09:45:40.030Z,79.14
2016-08-03T09:46:38.936Z,80.58
2016-08-03T09:47:39.912Z,80.69
2016-08-03T09:48:39.255Z,79.97
2016-08-03T09:49:40.456Z,78.94
2016-08-03T09:50:39.738Z,79.33
2016-08-03T09:51:40.342Z,79.77
2016-08-03T09:52:39.255Z,80.68
2016-08-03T09:53:39.514Z,79.97
2016-08-03T09:54:39.681Z,80.35
2016-08-03T09:55:39.067Z,78.91
2016-08-03T09:56:40.946Z,78.52
2016-08-03T09:57:38.640Z,77.4
2016-08-03T09:58:40.483Z,78.33
2016-08-03T09:59:40.391Z,77.98
2016-08-03T10:00:39.631Z,78.27
2016-08-03T10:01:39.946Z,78.21
2016-08-03T10:02:39.201Z,79.14
2016-08-03T10:03:41.098Z,79.24
2016-08-03T10:04:39.272Z,78.08
2016-08-03T10:05:39.361Z,78.69
2016-08-03T10:06:39.700Z,77.11
2016-08-03T10:07:39.637Z,74.68
2016-08-03T10:08:39.602Z,74.42
2016-08-03T10:09:40.174Z,74.68
2016-08-03T10:10:41.316Z,74.1
2016-08-03T10:11:39.776Z,73.74
2016-08-03T10:12:39.809Z,72.26
2016-08-03T10:13:39.893Z,71.59
2016-08-03T10:14:39.742Z,70.34
2016-08-03T10:15:40.243Z,69.85
2016-08-03T10:16:39.991Z,68.76
2016-08-03T10:17:40.478Z,69.18
2016-08-03T10:18:39.977Z,70.04
2016-08-03T10:19:40.335Z,71.44
2016-08-03T10:20:40.250Z,72.62
2016-08-03T10:21:41.318Z,74.04
2016-08-03T10:22:40.558Z,75.29
2016-08-03T10:23:39.978Z,74.54
2016-08-03T10:24:39.951Z,73.8
2016-08-03T10:25:40.558Z,75.93
2016-08-03T10:26:41.322Z,76.32
2016-08-03T10:27:39.743Z,76.67
2016-08-03T10:28:41.108Z,78.11
2016-08-03T10:29:40.034Z,76.86
2016-08-03T10:30:40.063Z,76.7
2016-08-03T10:31:40.067Z,77.34
2016-08-03T10:32:40.155Z,77.4
2016-08-03T10:33:40.171Z,79.08
2016-08-03T10:34:40.369Z,79.58
2016-08-03T10:35:41.197Z,78.17
2016-08-03T10:36:40.164Z,79.08
2016-08-03T10:37:40.878Z,80.3
2016-08-03T10:38:40.748Z,79.04
2016-08-03T10:39:40.592Z,79.56
2016-08-03T10:40:41.071Z,78.03
2016-08-03T10:41:40.509Z,79
2016-08-03T10:42:41.109Z,79.49
2016-08-03T10:44:40.927Z,79.33
2016-08-03T10:45:42.305Z,79.1
2016-08-03T10:46:41.354Z,79.91
2016-08-03T10:47:42.419Z,77.59
2016-08-03T10:48:40.619Z,76.16
2016-08-03T10:49:42.194Z,76.78
2016-08-03T10:50:41.491Z,75.64
2016-08-03T10:51:41.527Z,74.06
2016-08-03T10:52:41.407Z,77.53
2016-08-03T10:53:41.580Z,75.95
2016-08-03T10:54:41.018Z,75.74
2016-08-03T10:55:41.746Z,75.68
2016-08-03T10:56:41.394Z,76.74
2016-08-03T10:57:41.980Z,76.7
2016-08-03T10:58:41.310Z,75.79
2016-08-03T10:59:41.398Z,76.82
2016-08-03T11:00:40.964Z,76.7
2016-08-03T11:01:41.402Z,77.44
2016-08-03T11:02:41.335Z,77.3
2016-08-03T11:03:43.271Z,76.47
2016-08-03T11:04:42.261Z,78.41
2016-08-03T11:05:41.554Z,78.79
2016-08-03T11:06:42.248Z,78.85
2016-08-03T11:07:42.369Z,78.17
2016-08-03T11:08:41.224Z,78.66
2016-08-03T11:09:41.658Z,78.94
2016-08-03T11:10:41.526Z,78.66
2016-08-03T11:11:42.367Z,78.17
2016-08-03T11:12:42.555Z,77.44
2016-08-03T11:13:42.019Z,77.92
2016-08-03T11:14:41.690Z,78.94
2016-08-03T11:15:41.705Z,78.56
2016-08-03T11:16:41.707Z,79.33
2016-08-03T11:17:42.380Z,78.66
2016-08-03T11:18:42.460Z,77.98
2016-08-03T11:19:41.990Z,77.59
2016-08-03T11:20:42.066Z,76.95
2016-08-03T11:21:42.696Z,77.78
2016-08-03T11:22:41.952Z,76.47
2016-08-03T11:23:41.315Z,76.28
2016-08-03T11:24:42.360Z,76.95
2016-08-03T11:25:41.964Z,77.4
2016-08-03T11:26:41.535Z,77.3
2016-08-03T11:27:42.166Z,76.86
2016-08-03T11:28:42.016Z,76.86
2016-08-03T11:29:42.328Z,76.18
2016-08-03T11:30:43.329Z,75.84
2016-08-03T11:31:42.671Z,76.47
2016-08-03T11:32:43.943Z,76.47
2016-08-03T11:33:42.627Z,76.9
2016-08-03T11:34:42.101Z,78.89
2016-08-03T11:35:42.434Z,78.13
2016-08-03T11:36:43.056Z,77.78
2016-08-03T11:37:42.504Z,78.36
2016-08-03T11:38:44.104Z,78.36
2016-08-03T11:39:42.927Z,78.36
2016-08-03T11:40:43.020Z,79.04
2016-08-03T11:41:42.538Z,79.77
2016-08-03T11:42:42.698Z,79.68
2016-08-03T11:43:43.376Z,79.19
2016-08-03T11:44:42.872Z,79.43
2016-08-03T11:45:42.555Z,78.46
2016-08-03T11:46:42.836Z,78.71
2016-08-03T11:47:43.539Z,78.94
2016-08-03T11:48:42.952Z,80
2016-08-03T11:49:43.979Z,78.66
2016-08-03T11:50:44.365Z,77.83
2016-08-03T11:51:42.547Z,77.83
2016-08-03T11:52:42.862Z,77.53
2016-08-03T11:53:42.444Z,77.44
2016-08-03T11:54:42.587Z,76.32
2016-08-03T11:55:42.515Z,75.64
2016-08-03T11:56:42.741Z,73.94
2016-08-03T11:57:42.743Z,74.04
2016-08-03T11:58:43.313Z,74.87
2016-08-03T11:59:44.004Z,75.16
2016-08-03T12:00:42.765Z,75.26
2016-08-03T12:01:43.647Z,75.45
2016-08-03T12:02:44.530Z,74.38
2016-08-03T12:03:43.779Z,74.68
2016-08-03T12:04:44.482Z,75.64
2016-08-03T12:05:43.641Z,75.26
2016-08-03T12:06:44.817Z,76.55
2016-08-03T12:07:44.776Z,76.61
2016-08-03T12:08:44.962Z,75.54
2016-08-03T12:09:43.941Z,74.9
2016-08-03T12:10:44.203Z,75.97
2016-08-03T12:11:43.723Z,75.54
2016-08-03T12:12:44.332Z,76.03
2016-08-03T12:13:44.717Z,75.7
2016-08-03T12:14:43.739Z,76.37
2016-08-03T12:15:44.600Z,76.57
2016-08-03T12:16:44.368Z,76.09
2016-08-03T12:17:43.771Z,75.99
2016-08-03T12:18:44.325Z,75.7
2016-08-03T12:19:43.966Z,75.6
2016-08-03T12:20:44.416Z,75.89
2016-08-03T12:21:44.199Z,75.99
2016-08-03T12:22:44.063Z,75.99
2016-08-03T12:23:44.370Z,76.18
2016-08-03T12:24:43.268Z,75.89
2016-08-03T12:25:43.814Z,75.99
2016-08-03T12:26:44.032Z,75.89
2016-08-03T12:27:44.533Z,75.54
2016-08-03T12:28:45.061Z,76.37
2016-08-03T12:29:44.899Z,75.89
2016-08-03T12:30:44.396Z,75.51
2016-08-03T12:31:44.134Z,75.26
2016-08-03T12:32:45.214Z,76.37
2016-08-03T12:33:44.709Z,76.76
2016-08-03T12:34:44.069Z,76.09
2016-08-03T12:35:44.381Z,76.72
2016-08-03T12:36:44.255Z,77.01
2016-08-03T12:37:44.697Z,77.59
2016-08-03T12:38:44.521Z,77.01
2016-08-03T12:39:44.111Z,76.92
2016-08-03T12:40:44.686Z,76.82
2016-08-03T12:41:44.959Z,77.21
2016-08-03T12:42:44.867Z,77.3
2016-08-03T12:43:44.361Z,77.94
2016-08-03T12:44:45.354Z,77.84
2016-08-03T12:45:45.265Z,78.56
2016-08-03T12:46:44.984Z,78.03
2016-08-03T12:47:44.444Z,78.91
2016-08-03T12:48:45.293Z,79
2016-08-03T12:49:45.050Z,79.19
2016-08-03T12:50:45.195Z,78.52
2016-08-03T12:51:44.206Z,79
2016-08-03T12:52:45.442Z,78.77
2016-08-03T12:53:45.898Z,79
2016-08-03T12:54:45.289Z,77.94
2016-08-03T12:55:45.725Z,77.46
2016-08-03T12:56:45.569Z,77.78
2016-08-03T12:57:44.957Z,77.94
2016-08-03T12:58:45.252Z,78.61
2016-08-03T12:59:45.374Z,78.23
2016-08-03T13:00:44.831Z,78.91
2016-08-03T13:01:45.934Z,78.38
2016-08-03T13:02:45.734Z,78.91
2016-08-03T13:03:45.753Z,79.06
2016-08-03T13:04:47.588Z,79.83
2016-08-03T13:05:45.138Z,79.5
2016-08-03T13:06:45.147Z,80.56